sensor_id;sensor_type;location;lat;lon;timestamp;P1;durP1;ratioP1;P2;durP2;ratioP2
21657;SDS011;10990;48.174;9.782;2022-09-13T00:01:00;1.65;;;1.10;;
21657;SDS011;10990;48.174;9.782;2022-09-13T00:03:28;1.13;;;0.93;;
21657;SDS011;10990;48.174;9.782;2022-09-13T00:05:57;1.20;;;1.10;;
21657;SDS011;10990;48.174;9.782;2022-09-13T00:08:27;0.88;;;0.88;;
21657;SDS011;10990;48.174;9.782;2022-09-13T00:10:54;1.92;;;1.10;;
21657;SDS011;10990;48.174;9.782;2022-09-13T00:13:21;1.40;;;1.30;;
21657;SDS011;10990;48.174;9.782;2022-09-13T00:15:49;1.65;;;1.25;;
21657;SDS011;10990;48.174;9.782;2022-09-13T00:18:16;1.55;;;1.23;;
21657;SDS011;10990;48.174;9.782;2022-09-13T00:20:44;4.93;;;1.60;;
21657;SDS011;10990;48.174;9.782;2022-09-13T00:23:12;1.92;;;1.30;;
21657;SDS011;10990;48.174;9.782;2022-09-13T00:25:41;2.38;;;1.60;;
21657;SDS011;10990;48.174;9.782;2022-09-13T00:28:08;1.75;;;1.38;;
21657;SDS011;10990;48.174;9.782;2022-09-13T00:30:35;2.67;;;1.50;;
21657;SDS011;10990;48.174;9.782;2022-09-13T00:33:03;3.60;;;1.58;;
21657;SDS011;10990;48.174;9.782;2022-09-13T00:35:30;2.40;;;1.40;;
21657;SDS011;10990;48.174;9.782;2022-09-13T00:38:00;2.05;;;1.20;;
21657;SDS011;10990;48.174;9.782;2022-09-13T00:40:27;2.33;;;1.38;;
21657;SDS011;10990;48.174;9.782;2022-09-13T00:42:57;1.50;;;1.40;;
21657;SDS011;10990;48.174;9.782;2022-09-13T00:45:24;1.85;;;1.42;;
21657;SDS011;10990;48.174;9.782;2022-09-13T00:47:52;3.75;;;1.45;;
21657;SDS011;10990;48.174;9.782;2022-09-13T00:50:41;2.08;;;1.58;;
21657;SDS011;10990;48.174;9.782;2022-09-13T00:53:12;1.40;;;1.30;;
21657;SDS011;10990;48.174;9.782;2022-09-13T00:55:45;2.95;;;1.40;;
21657;SDS011;10990;48.174;9.782;2022-09-13T00:58:19;2.75;;;1.48;;
21657;SDS011;10990;48.174;9.782;2022-09-13T01:00:50;1.65;;;1.38;;
21657;SDS011;10990;48.174;9.782;2022-09-13T01:03:18;2.00;;;1.27;;
21657;SDS011;10990;48.174;9.782;2022-09-13T01:05:50;2.03;;;1.30;;
21657;SDS011;10990;48.174;9.782;2022-09-13T01:08:24;1.50;;;1.40;;
21657;SDS011;10990;48.174;9.782;2022-09-13T01:10:56;1.48;;;1.38;;
21657;SDS011;10990;48.174;9.782;2022-09-13T01:13:29;1.85;;;1.38;;
21657;SDS011;10990;48.174;9.782;2022-09-13T01:15:59;2.30;;;1.33;;
21657;SDS011;10990;48.174;9.782;2022-09-13T01:18:27;1.27;;;1.17;;
21657;SDS011;10990;48.174;9.782;2022-09-13T01:21:05;1.35;;;1.17;;
21657;SDS011;10990;48.174;9.782;2022-09-13T01:23:59;1.80;;;1.27;;
21657;SDS011;10990;48.174;9.782;2022-09-13T01:26:53;4.35;;;1.05;;
21657;SDS011;10990;48.174;9.782;2022-09-13T01:29:46;2.42;;;1.40;;
21657;SDS011;10990;48.174;9.782;2022-09-13T01:32:35;2.63;;;1.30;;
21657;SDS011;10990;48.174;9.782;2022-09-13T01:35:15;1.50;;;1.20;;
21657;SDS011;10990;48.174;9.782;2022-09-13T01:37:54;2.45;;;1.15;;
21657;SDS011;10990;48.174;9.782;2022-09-13T01:40:35;1.20;;;1.10;;
21657;SDS011;10990;48.174;9.782;2022-09-13T01:43:18;2.70;;;1.00;;
21657;SDS011;10990;48.174;9.782;2022-09-13T01:45:58;2.15;;;1.10;;
21657;SDS011;10990;48.174;9.782;2022-09-13T01:48:33;1.30;;;1.20;;
21657;SDS011;10990;48.174;9.782;2022-09-13T01:51:15;1.80;;;1.42;;
21657;SDS011;10990;48.174;9.782;2022-09-13T01:53:50;1.65;;;1.35;;
21657;SDS011;10990;48.174;9.782;2022-09-13T01:56:31;1.48;;;1.38;;
21657;SDS011;10990;48.174;9.782;2022-09-13T01:59:05;2.53;;;1.30;;
21657;SDS011;10990;48.174;9.782;2022-09-13T02:01:41;1.40;;;1.30;;
21657;SDS011;10990;48.174;9.782;2022-09-13T02:04:16;1.65;;;1.20;;
21657;SDS011;10990;48.174;9.782;2022-09-13T02:06:49;1.55;;;1.10;;
21657;SDS011;10990;48.174;9.782;2022-09-13T02:09:23;1.20;;;1.10;;
21657;SDS011;10990;48.174;9.782;2022-09-13T02:11:55;3.20;;;1.30;;
21657;SDS011;10990;48.174;9.782;2022-09-13T02:14:28;1.60;;;1.00;;
21657;SDS011;10990;48.174;9.782;2022-09-13T02:17:02;2.10;;;1.50;;
21657;SDS011;10990;48.174;9.782;2022-09-13T02:19:34;2.15;;;1.40;;
21657;SDS011;10990;48.174;9.782;2022-09-13T02:22:05;1.50;;;1.17;;
21657;SDS011;10990;48.174;9.782;2022-09-13T02:24:39;1.30;;;1.20;;
21657;SDS011;10990;48.174;9.782;2022-09-13T02:27:11;1.67;;;1.30;;
21657;SDS011;10990;48.174;9.782;2022-09-13T02:29:42;2.92;;;1.38;;
21657;SDS011;10990;48.174;9.782;2022-09-13T02:32:14;2.90;;;1.30;;
21657;SDS011;10990;48.174;9.782;2022-09-13T02:34:49;1.63;;;1.30;;
21657;SDS011;10990;48.174;9.782;2022-09-13T02:37:20;3.20;;;1.50;;
21657;SDS011;10990;48.174;9.782;2022-09-13T02:39:51;1.95;;;1.33;;
21657;SDS011;10990;48.174;9.782;2022-09-13T02:42:25;1.23;;;1.13;;
21657;SDS011;10990;48.174;9.782;2022-09-13T02:44:56;1.58;;;1.42;;
21657;SDS011;10990;48.174;9.782;2022-09-13T02:47:32;2.78;;;1.20;;
21657;SDS011;10990;48.174;9.782;2022-09-13T02:50:22;1.20;;;1.10;;
21657;SDS011;10990;48.174;9.782;2022-09-13T02:53:02;1.20;;;1.10;;
21657;SDS011;10990;48.174;9.782;2022-09-13T02:55:38;1.88;;;1.30;;
21657;SDS011;10990;48.174;9.782;2022-09-13T02:58:11;2.80;;;1.13;;
21657;SDS011;10990;48.174;9.782;2022-09-13T03:00:45;1.40;;;1.30;;
21657;SDS011;10990;48.174;9.782;2022-09-13T03:03:13;1.55;;;1.10;;
21657;SDS011;10990;48.174;9.782;2022-09-13T03:05:42;2.58;;;1.30;;
21657;SDS011;10990;48.174;9.782;2022-09-13T03:08:10;2.95;;;1.38;;
21657;SDS011;10990;48.174;9.782;2022-09-13T03:10:44;1.38;;;1.20;;
21657;SDS011;10990;48.174;9.782;2022-09-13T03:13:23;1.17;;;1.08;;
21657;SDS011;10990;48.174;9.782;2022-09-13T03:16:14;2.08;;;1.52;;
21657;SDS011;10990;48.174;9.782;2022-09-13T03:18:57;1.40;;;1.30;;
21657;SDS011;10990;48.174;9.782;2022-09-13T03:21:38;1.58;;;1.20;;
21657;SDS011;10990;48.174;9.782;2022-09-13T03:24:21;1.50;;;1.40;;
21657;SDS011;10990;48.174;9.782;2022-09-13T03:26:55;1.65;;;1.27;;
21657;SDS011;10990;48.174;9.782;2022-09-13T03:29:36;1.33;;;1.23;;
21657;SDS011;10990;48.174;9.782;2022-09-13T03:32:13;1.67;;;1.40;;
21657;SDS011;10990;48.174;9.782;2022-09-13T03:34:50;1.85;;;1.33;;
21657;SDS011;10990;48.174;9.782;2022-09-13T03:37:24;1.27;;;1.20;;
21657;SDS011;10990;48.174;9.782;2022-09-13T03:39:58;1.45;;;1.20;;
21657;SDS011;10990;48.174;9.782;2022-09-13T03:42:30;4.57;;;1.37;;
21657;SDS011;10990;48.174;9.782;2022-09-13T03:45:01;2.47;;;1.30;;
21657;SDS011;10990;48.174;9.782;2022-09-13T03:47:31;1.27;;;1.17;;
21657;SDS011;10990;48.174;9.782;2022-09-13T03:50:04;2.00;;;1.30;;
21657;SDS011;10990;48.174;9.782;2022-09-13T03:52:35;3.40;;;1.40;;
21657;SDS011;10990;48.174;9.782;2022-09-13T03:55:02;1.63;;;1.10;;
21657;SDS011;10990;48.174;9.782;2022-09-13T03:57:30;2.33;;;1.20;;
21657;SDS011;10990;48.174;9.782;2022-09-13T03:59:58;3.83;;;1.30;;
21657;SDS011;10990;48.174;9.782;2022-09-13T04:02:25;2.20;;;1.40;;
21657;SDS011;10990;48.174;9.782;2022-09-13T04:04:53;1.47;;;1.20;;
21657;SDS011;10990;48.174;9.782;2022-09-13T04:07:23;1.90;;;1.47;;
21657;SDS011;10990;48.174;9.782;2022-09-13T04:09:50;1.50;;;1.13;;
21657;SDS011;10990;48.174;9.782;2022-09-13T04:12:17;3.17;;;1.20;;
21657;SDS011;10990;48.174;9.782;2022-09-13T04:14:45;1.40;;;1.30;;
21657;SDS011;10990;48.174;9.782;2022-09-13T04:17:12;1.77;;;1.30;;
21657;SDS011;10990;48.174;9.782;2022-09-13T04:19:40;1.25;;;1.15;;
21657;SDS011;10990;48.174;9.782;2022-09-13T04:22:11;3.10;;;1.27;;
21657;SDS011;10990;48.174;9.782;2022-09-13T04:24:40;3.00;;;1.50;;
21657;SDS011;10990;48.174;9.782;2022-09-13T04:27:08;1.63;;;1.48;;
21657;SDS011;10990;48.174;9.782;2022-09-13T04:29:36;2.95;;;1.40;;
21657;SDS011;10990;48.174;9.782;2022-09-13T04:32:03;3.43;;;1.40;;
21657;SDS011;10990;48.174;9.782;2022-09-13T04:34:31;4.20;;;1.50;;
21657;SDS011;10990;48.174;9.782;2022-09-13T04:36:58;1.57;;;1.20;;
21657;SDS011;10990;48.174;9.782;2022-09-13T04:39:25;2.93;;;1.60;;
21657;SDS011;10990;48.174;9.782;2022-09-13T04:41:54;1.83;;;1.33;;
21657;SDS011;10990;48.174;9.782;2022-09-13T04:44:22;2.57;;;1.30;;
21657;SDS011;10990;48.174;9.782;2022-09-13T04:46:49;2.20;;;1.70;;
21657;SDS011;10990;48.174;9.782;2022-09-13T04:49:17;2.33;;;1.33;;
21657;SDS011;10990;48.174;9.782;2022-09-13T04:51:46;1.40;;;1.30;;
21657;SDS011;10990;48.174;9.782;2022-09-13T04:54:14;3.70;;;1.57;;
21657;SDS011;10990;48.174;9.782;2022-09-13T04:56:41;4.43;;;1.50;;
21657;SDS011;10990;48.174;9.782;2022-09-13T04:59:10;3.90;;;1.60;;
21657;SDS011;10990;48.174;9.782;2022-09-13T05:01:38;2.67;;;1.70;;
21657;SDS011;10990;48.174;9.782;2022-09-13T05:04:06;2.53;;;1.50;;
21657;SDS011;10990;48.174;9.782;2022-09-13T05:06:36;3.45;;;1.80;;
21657;SDS011;10990;48.174;9.782;2022-09-13T05:09:03;2.77;;;1.67;;
21657;SDS011;10990;48.174;9.782;2022-09-13T05:11:31;5.20;;;1.60;;
21657;SDS011;10990;48.174;9.782;2022-09-13T05:13:59;2.50;;;1.60;;
21657;SDS011;10990;48.174;9.782;2022-09-13T05:16:30;3.77;;;1.60;;
21657;SDS011;10990;48.174;9.782;2022-09-13T05:18:59;3.23;;;1.70;;
21657;SDS011;10990;48.174;9.782;2022-09-13T05:21:27;3.27;;;1.50;;
21657;SDS011;10990;48.174;9.782;2022-09-13T05:23:55;2.97;;;1.50;;
21657;SDS011;10990;48.174;9.782;2022-09-13T05:26:23;2.45;;;1.33;;
21657;SDS011;10990;48.174;9.782;2022-09-13T05:28:53;3.45;;;1.60;;
21657;SDS011;10990;48.174;9.782;2022-09-13T05:31:21;3.53;;;1.60;;
21657;SDS011;10990;48.174;9.782;2022-09-13T05:33:53;4.47;;;1.67;;
21657;SDS011;10990;48.174;9.782;2022-09-13T05:36:23;3.53;;;1.95;;
21657;SDS011;10990;48.174;9.782;2022-09-13T05:38:50;5.90;;;2.20;;
21657;SDS011;10990;48.174;9.782;2022-09-13T05:41:18;6.07;;;2.10;;
21657;SDS011;10990;48.174;9.782;2022-09-13T05:43:46;2.85;;;1.75;;
21657;SDS011;10990;48.174;9.782;2022-09-13T05:46:14;5.20;;;1.88;;
21657;SDS011;10990;48.174;9.782;2022-09-13T05:48:42;3.92;;;1.85;;
21657;SDS011;10990;48.174;9.782;2022-09-13T05:51:12;3.63;;;1.58;;
21657;SDS011;10990;48.174;9.782;2022-09-13T05:53:41;3.58;;;1.75;;
21657;SDS011;10990;48.174;9.782;2022-09-13T05:56:11;3.95;;;2.00;;
21657;SDS011;10990;48.174;9.782;2022-09-13T05:58:41;3.47;;;1.85;;
21657;SDS011;10990;48.174;9.782;2022-09-13T06:01:09;2.63;;;1.92;;
21657;SDS011;10990;48.174;9.782;2022-09-13T06:03:39;2.30;;;2.10;;
21657;SDS011;10990;48.174;9.782;2022-09-13T06:06:07;4.88;;;2.00;;
21657;SDS011;10990;48.174;9.782;2022-09-13T06:08:36;5.13;;;2.50;;
21657;SDS011;10990;48.174;9.782;2022-09-13T06:11:05;5.60;;;2.30;;
21657;SDS011;10990;48.174;9.782;2022-09-13T06:13:34;5.78;;;2.10;;
21657;SDS011;10990;48.174;9.782;2022-09-13T06:16:01;3.83;;;2.30;;
21657;SDS011;10990;48.174;9.782;2022-09-13T06:18:32;3.20;;;2.10;;
21657;SDS011;10990;48.174;9.782;2022-09-13T06:21:01;4.00;;;2.13;;
21657;SDS011;10990;48.174;9.782;2022-09-13T06:23:30;3.00;;;2.05;;
21657;SDS011;10990;48.174;9.782;2022-09-13T06:25:59;4.00;;;2.15;;
21657;SDS011;10990;48.174;9.782;2022-09-13T06:28:28;4.18;;;2.30;;
21657;SDS011;10990;48.174;9.782;2022-09-13T06:31:00;3.10;;;1.85;;
21657;SDS011;10990;48.174;9.782;2022-09-13T06:33:27;4.65;;;2.05;;
21657;SDS011;10990;48.174;9.782;2022-09-13T06:35:54;2.42;;;1.58;;
21657;SDS011;10990;48.174;9.782;2022-09-13T06:38:25;3.13;;;1.95;;
21657;SDS011;10990;48.174;9.782;2022-09-13T06:41:01;2.95;;;2.03;;
21657;SDS011;10990;48.174;9.782;2022-09-13T06:43:29;3.13;;;1.77;;
21657;SDS011;10990;48.174;9.782;2022-09-13T06:46:00;3.80;;;1.75;;
21657;SDS011;10990;48.174;9.782;2022-09-13T06:48:31;2.78;;;1.70;;
21657;SDS011;10990;48.174;9.782;2022-09-13T06:50:59;3.92;;;1.70;;
21657;SDS011;10990;48.174;9.782;2022-09-13T06:53:26;2.97;;;1.63;;
21657;SDS011;10990;48.174;9.782;2022-09-13T06:56:03;2.28;;;1.80;;
21657;SDS011;10990;48.174;9.782;2022-09-13T06:58:32;1.88;;;1.58;;
21657;SDS011;10990;48.174;9.782;2022-09-13T07:01:07;2.72;;;1.80;;
21657;SDS011;10990;48.174;9.782;2022-09-13T07:03:36;2.72;;;1.60;;
21657;SDS011;10990;48.174;9.782;2022-09-13T07:06:08;1.63;;;1.40;;
21657;SDS011;10990;48.174;9.782;2022-09-13T07:08:36;2.75;;;1.50;;
21657;SDS011;10990;48.174;9.782;2022-09-13T07:11:06;3.45;;;1.90;;
21657;SDS011;10990;48.174;9.782;2022-09-13T07:13:35;2.80;;;1.40;;
21657;SDS011;10990;48.174;9.782;2022-09-13T07:16:03;3.17;;;1.42;;
21657;SDS011;10990;48.174;9.782;2022-09-13T07:18:31;2.45;;;1.52;;
21657;SDS011;10990;48.174;9.782;2022-09-13T07:20:59;1.88;;;1.55;;
21657;SDS011;10990;48.174;9.782;2022-09-13T07:23:28;3.03;;;1.70;;
21657;SDS011;10990;48.174;9.782;2022-09-13T07:25:57;1.63;;;1.50;;
21657;SDS011;10990;48.174;9.782;2022-09-13T07:28:30;2.33;;;1.60;;
21657;SDS011;10990;48.174;9.782;2022-09-13T07:31:05;2.95;;;1.70;;
21657;SDS011;10990;48.174;9.782;2022-09-13T07:33:34;1.50;;;1.40;;
21657;SDS011;10990;48.174;9.782;2022-09-13T07:36:03;2.03;;;1.40;;
21657;SDS011;10990;48.174;9.782;2022-09-13T07:38:32;2.25;;;1.50;;
21657;SDS011;10990;48.174;9.782;2022-09-13T07:41:00;1.40;;;1.30;;
21657;SDS011;10990;48.174;9.782;2022-09-13T07:43:32;5.32;;;2.40;;
21657;SDS011;10990;48.174;9.782;2022-09-13T07:46:00;2.05;;;1.90;;
21657;SDS011;10990;48.174;9.782;2022-09-13T07:48:28;1.60;;;1.40;;
21657;SDS011;10990;48.174;9.782;2022-09-13T07:50:59;1.73;;;1.60;;
21657;SDS011;10990;48.174;9.782;2022-09-13T07:53:28;2.75;;;1.60;;
21657;SDS011;10990;48.174;9.782;2022-09-13T07:55:59;1.83;;;1.52;;
21657;SDS011;10990;48.174;9.782;2022-09-13T07:58:27;1.80;;;1.70;;
21657;SDS011;10990;48.174;9.782;2022-09-13T08:00:57;1.95;;;1.80;;
21657;SDS011;10990;48.174;9.782;2022-09-13T08:03:30;2.03;;;1.48;;
21657;SDS011;10990;48.174;9.782;2022-09-13T08:05:58;2.08;;;1.88;;
21657;SDS011;10990;48.174;9.782;2022-09-13T08:08:25;2.78;;;1.70;;
21657;SDS011;10990;48.174;9.782;2022-09-13T08:10:52;1.65;;;1.50;;
21657;SDS011;10990;48.174;9.782;2022-09-13T08:13:20;2.08;;;1.80;;
21657;SDS011;10990;48.174;9.782;2022-09-13T08:15:48;2.20;;;1.60;;
21657;SDS011;10990;48.174;9.782;2022-09-13T08:18:17;1.50;;;1.40;;
21657;SDS011;10990;48.174;9.782;2022-09-13T08:20:45;1.75;;;1.60;;
21657;SDS011;10990;48.174;9.782;2022-09-13T08:23:13;1.40;;;1.30;;
21657;SDS011;10990;48.174;9.782;2022-09-13T08:25:41;2.30;;;1.40;;
21657;SDS011;10990;48.174;9.782;2022-09-13T08:28:08;2.15;;;1.30;;
21657;SDS011;10990;48.174;9.782;2022-09-13T08:30:41;1.88;;;1.38;;
21657;SDS011;10990;48.174;9.782;2022-09-13T08:33:08;2.13;;;1.27;;
21657;SDS011;10990;48.174;9.782;2022-09-13T08:35:37;1.52;;;1.42;;
21657;SDS011;10990;48.174;9.782;2022-09-13T08:38:05;1.58;;;1.45;;
21657;SDS011;10990;48.174;9.782;2022-09-13T08:40:37;2.85;;;1.50;;
21657;SDS011;10990;48.174;9.782;2022-09-13T08:43:08;1.85;;;1.73;;
21657;SDS011;10990;48.174;9.782;2022-09-13T08:45:47;1.45;;;1.35;;
21657;SDS011;10990;48.174;9.782;2022-09-13T08:48:17;4.18;;;1.50;;
21657;SDS011;10990;48.174;9.782;2022-09-13T08:50:48;3.10;;;1.45;;
21657;SDS011;10990;48.174;9.782;2022-09-13T08:53:21;1.60;;;1.50;;
21657;SDS011;10990;48.174;9.782;2022-09-13T08:55:54;2.90;;;1.63;;
21657;SDS011;10990;48.174;9.782;2022-09-13T08:58:31;2.85;;;1.38;;
21657;SDS011;10990;48.174;9.782;2022-09-13T09:01:06;2.45;;;1.55;;
21657;SDS011;10990;48.174;9.782;2022-09-13T09:03:40;2.38;;;1.30;;
21657;SDS011;10990;48.174;9.782;2022-09-13T09:06:14;1.95;;;1.33;;
21657;SDS011;10990;48.174;9.782;2022-09-13T09:08:44;1.50;;;1.40;;
21657;SDS011;10990;48.174;9.782;2022-09-13T09:11:19;1.50;;;1.40;;
21657;SDS011;10990;48.174;9.782;2022-09-13T09:13:56;1.67;;;1.52;;
21657;SDS011;10990;48.174;9.782;2022-09-13T09:16:30;1.95;;;1.67;;
21657;SDS011;10990;48.174;9.782;2022-09-13T09:19:08;4.00;;;1.45;;
21657;SDS011;10990;48.174;9.782;2022-09-13T09:21:44;2.40;;;1.40;;
21657;SDS011;10990;48.174;9.782;2022-09-13T09:24:16;1.60;;;1.50;;
21657;SDS011;10990;48.174;9.782;2022-09-13T09:26:46;1.67;;;1.25;;
21657;SDS011;10990;48.174;9.782;2022-09-13T09:29:18;2.65;;;1.30;;
21657;SDS011;10990;48.174;9.782;2022-09-13T09:31:57;1.90;;;1.23;;
21657;SDS011;10990;48.174;9.782;2022-09-13T09:34:40;1.30;;;1.20;;
21657;SDS011;10990;48.174;9.782;2022-09-13T09:37:18;1.80;;;1.17;;
21657;SDS011;10990;48.174;9.782;2022-09-13T09:39:49;1.40;;;1.20;;
21657;SDS011;10990;48.174;9.782;2022-09-13T09:42:19;1.40;;;1.30;;
21657;SDS011;10990;48.174;9.782;2022-09-13T09:44:52;1.50;;;1.40;;
21657;SDS011;10990;48.174;9.782;2022-09-13T09:47:23;1.42;;;1.10;;
21657;SDS011;10990;48.174;9.782;2022-09-13T09:49:54;2.10;;;1.33;;
21657;SDS011;10990;48.174;9.782;2022-09-13T09:52:39;2.22;;;1.50;;
21657;SDS011;10990;48.174;9.782;2022-09-13T09:55:11;1.73;;;1.45;;
21657;SDS011;10990;48.174;9.782;2022-09-13T09:57:49;1.40;;;1.30;;
21657;SDS011;10990;48.174;9.782;2022-09-13T10:00:21;2.25;;;1.48;;
21657;SDS011;10990;48.174;9.782;2022-09-13T10:02:51;1.52;;;1.42;;
21657;SDS011;10990;48.174;9.782;2022-09-13T10:05:22;3.85;;;1.60;;
21657;SDS011;10990;48.174;9.782;2022-09-13T10:07:57;1.30;;;1.20;;
21657;SDS011;10990;48.174;9.782;2022-09-13T10:10:31;1.30;;;1.15;;
21657;SDS011;10990;48.174;9.782;2022-09-13T10:13:06;1.00;;;1.00;;
21657;SDS011;10990;48.174;9.782;2022-09-13T10:15:50;2.75;;;1.30;;
21657;SDS011;10990;48.174;9.782;2022-09-13T10:18:20;1.20;;;1.10;;
21657;SDS011;10990;48.174;9.782;2022-09-13T10:20:58;0.95;;;0.95;;
21657;SDS011;10990;48.174;9.782;2022-09-13T10:23:28;1.00;;;1.00;;
21657;SDS011;10990;48.174;9.782;2022-09-13T10:26:01;0.90;;;0.90;;
21657;SDS011;10990;48.174;9.782;2022-09-13T10:28:32;5.47;;;2.85;;
21657;SDS011;10990;48.174;9.782;2022-09-13T10:31:03;1.38;;;1.10;;
21657;SDS011;10990;48.174;9.782;2022-09-13T10:33:35;0.90;;;0.90;;
21657;SDS011;10990;48.174;9.782;2022-09-13T10:36:05;1.65;;;1.10;;
21657;SDS011;10990;48.174;9.782;2022-09-13T10:38:39;1.30;;;1.10;;
21657;SDS011;10990;48.174;9.782;2022-09-13T10:41:08;2.92;;;1.17;;
21657;SDS011;10990;48.174;9.782;2022-09-13T10:43:46;1.27;;;1.08;;
21657;SDS011;10990;48.174;9.782;2022-09-13T10:46:14;1.20;;;0.93;;
21657;SDS011;10990;48.174;9.782;2022-09-13T10:48:48;1.15;;;1.10;;
21657;SDS011;10990;48.174;9.782;2022-09-13T10:51:28;1.48;;;1.00;;
21657;SDS011;10990;48.174;9.782;2022-09-13T10:54:08;1.15;;;1.02;;
21657;SDS011;10990;48.174;9.782;2022-09-13T10:56:45;1.08;;;1.00;;
21657;SDS011;10990;48.174;9.782;2022-09-13T10:59:18;1.55;;;1.20;;
21657;SDS011;10990;48.174;9.782;2022-09-13T11:01:53;1.67;;;1.10;;
21657;SDS011;10990;48.174;9.782;2022-09-13T11:04:49;1.10;;;0.90;;
21657;SDS011;10990;48.174;9.782;2022-09-13T11:10:29;1.20;;;1.10;;
21657;SDS011;10990;48.174;9.782;2022-09-13T11:13:04;3.15;;;1.20;;
21657;SDS011;10990;48.174;9.782;2022-09-13T11:15:42;1.20;;;1.10;;
21657;SDS011;10990;48.174;9.782;2022-09-13T11:18:19;1.33;;;1.10;;
21657;SDS011;10990;48.174;9.782;2022-09-13T11:21:00;3.65;;;1.13;;
21657;SDS011;10990;48.174;9.782;2022-09-13T11:23:44;2.50;;;1.00;;
21657;SDS011;10990;48.174;9.782;2022-09-13T11:26:32;1.80;;;1.17;;
21657;SDS011;10990;48.174;9.782;2022-09-13T11:29:09;1.00;;;1.00;;
21657;SDS011;10990;48.174;9.782;2022-09-13T11:31:47;1.23;;;1.10;;
21657;SDS011;10990;48.174;9.782;2022-09-13T11:34:28;1.17;;;1.10;;
21657;SDS011;10990;48.174;9.782;2022-09-13T11:37:07;1.15;;;1.15;;
21657;SDS011;10990;48.174;9.782;2022-09-13T11:39:46;2.20;;;1.25;;
21657;SDS011;10990;48.174;9.782;2022-09-13T11:42:27;2.03;;;1.17;;
21657;SDS011;10990;48.174;9.782;2022-09-13T11:45:17;1.20;;;1.10;;
21657;SDS011;10990;48.174;9.782;2022-09-13T11:47:51;1.38;;;1.10;;
21657;SDS011;10990;48.174;9.782;2022-09-13T11:50:33;2.13;;;1.20;;
21657;SDS011;10990;48.174;9.782;2022-09-13T11:53:11;2.17;;;1.20;;
21657;SDS011;10990;48.174;9.782;2022-09-13T11:55:54;1.20;;;1.10;;
21657;SDS011;10990;48.174;9.782;2022-09-13T11:58:29;1.20;;;1.10;;
21657;SDS011;10990;48.174;9.782;2022-09-13T12:01:02;1.02;;;1.00;;
21657;SDS011;10990;48.174;9.782;2022-09-13T12:03:34;1.00;;;1.00;;
21657;SDS011;10990;48.174;9.782;2022-09-13T12:06:07;1.02;;;1.02;;
21657;SDS011;10990;48.174;9.782;2022-09-13T12:08:40;1.67;;;1.30;;
21657;SDS011;10990;48.174;9.782;2022-09-13T12:11:12;1.30;;;1.20;;
21657;SDS011;10990;48.174;9.782;2022-09-13T12:13:45;1.30;;;1.08;;
21657;SDS011;10990;48.174;9.782;2022-09-13T12:16:19;0.90;;;0.90;;
21657;SDS011;10990;48.174;9.782;2022-09-13T12:18:50;1.05;;;1.00;;
21657;SDS011;10990;48.174;9.782;2022-09-13T12:21:21;1.20;;;1.10;;
21657;SDS011;10990;48.174;9.782;2022-09-13T12:23:53;1.33;;;1.00;;
21657;SDS011;10990;48.174;9.782;2022-09-13T12:26:29;13.15;;;1.90;;
21657;SDS011;10990;48.174;9.782;2022-09-13T12:29:02;1.20;;;1.00;;
21657;SDS011;10990;48.174;9.782;2022-09-13T12:31:37;0.95;;;0.95;;
21657;SDS011;10990;48.174;9.782;2022-09-13T12:34:05;2.13;;;1.10;;
21657;SDS011;10990;48.174;9.782;2022-09-13T12:39:43;2.35;;;1.10;;
21657;SDS011;10990;48.174;9.782;2022-09-13T12:42:44;2.08;;;0.95;;
21657;SDS011;10990;48.174;9.782;2022-09-13T12:45:31;0.93;;;0.93;;
21657;SDS011;10990;48.174;9.782;2022-09-13T12:48:19;1.08;;;1.00;;
21657;SDS011;10990;48.174;9.782;2022-09-13T12:51:04;1.33;;;1.10;;
21657;SDS011;10990;48.174;9.782;2022-09-13T12:53:43;2.05;;;1.13;;
21657;SDS011;10990;48.174;9.782;2022-09-13T12:56:28;1.00;;;0.90;;
21657;SDS011;10990;48.174;9.782;2022-09-13T12:59:18;1.33;;;1.23;;
21657;SDS011;10990;48.174;9.782;2022-09-13T13:02:23;1.55;;;1.20;;
21657;SDS011;10990;48.174;9.782;2022-09-13T13:04:55;1.27;;;1.13;;
21657;SDS011;10990;48.174;9.782;2022-09-13T13:07:25;0.98;;;0.98;;
21657;SDS011;10990;48.174;9.782;2022-09-13T13:09:55;1.38;;;1.25;;
21657;SDS011;10990;48.174;9.782;2022-09-13T13:12:28;1.10;;;1.10;;
21657;SDS011;10990;48.174;9.782;2022-09-13T13:14:58;1.20;;;1.10;;
21657;SDS011;10990;48.174;9.782;2022-09-13T13:17:35;1.25;;;1.08;;
21657;SDS011;10990;48.174;9.782;2022-09-13T13:23:26;1.67;;;1.00;;
21657;SDS011;10990;48.174;9.782;2022-09-13T13:25:57;2.47;;;1.20;;
21657;SDS011;10990;48.174;9.782;2022-09-13T13:34:02;1.02;;;0.98;;
21657;SDS011;10990;48.174;9.782;2022-09-13T13:36:55;1.00;;;1.00;;
21657;SDS011;10990;48.174;9.782;2022-09-13T13:39:33;3.08;;;1.20;;
21657;SDS011;10990;48.174;9.782;2022-09-13T13:42:09;3.00;;;1.10;;
21657;SDS011;10990;48.174;9.782;2022-09-13T13:53:42;1.40;;;1.30;;
21657;SDS011;10990;48.174;9.782;2022-09-13T13:56:16;2.70;;;1.25;;
21657;SDS011;10990;48.174;9.782;2022-09-13T13:58:48;1.70;;;1.20;;
21657;SDS011;10990;48.174;9.782;2022-09-13T14:01:20;1.75;;;1.10;;
21657;SDS011;10990;48.174;9.782;2022-09-13T14:04:04;1.33;;;1.23;;
21657;SDS011;10990;48.174;9.782;2022-09-13T14:06:59;2.00;;;1.40;;
21657;SDS011;10990;48.174;9.782;2022-09-13T14:09:35;2.50;;;1.20;;
21657;SDS011;10990;48.174;9.782;2022-09-13T14:12:17;1.10;;;1.10;;
21657;SDS011;10990;48.174;9.782;2022-09-13T14:14:58;1.58;;;1.35;;
21657;SDS011;10990;48.174;9.782;2022-09-13T14:21:00;1.58;;;1.20;;
21657;SDS011;10990;48.174;9.782;2022-09-13T14:23:29;1.20;;;1.10;;
21657;SDS011;10990;48.174;9.782;2022-09-13T14:25:59;1.35;;;1.10;;
21657;SDS011;10990;48.174;9.782;2022-09-13T14:28:27;2.78;;;1.33;;
21657;SDS011;10990;48.174;9.782;2022-09-13T14:30:56;1.88;;;1.30;;
21657;SDS011;10990;48.174;9.782;2022-09-13T14:33:26;1.17;;;1.10;;
21657;SDS011;10990;48.174;9.782;2022-09-13T14:35:58;2.00;;;1.20;;
21657;SDS011;10990;48.174;9.782;2022-09-13T14:38:29;4.32;;;1.52;;
21657;SDS011;10990;48.174;9.782;2022-09-13T14:41:01;3.78;;;1.58;;
21657;SDS011;10990;48.174;9.782;2022-09-13T14:43:38;3.63;;;1.60;;
21657;SDS011;10990;48.174;9.782;2022-09-13T14:46:06;3.47;;;1.40;;
21657;SDS011;10990;48.174;9.782;2022-09-13T14:48:38;1.20;;;1.10;;
21657;SDS011;10990;48.174;9.782;2022-09-13T14:51:11;1.15;;;1.10;;
21657;SDS011;10990;48.174;9.782;2022-09-13T14:53:45;2.63;;;1.20;;
21657;SDS011;10990;48.174;9.782;2022-09-13T14:56:17;1.98;;;1.20;;
21657;SDS011;10990;48.174;9.782;2022-09-13T14:58:52;2.05;;;1.30;;
21657;SDS011;10990;48.174;9.782;2022-09-13T15:01:25;2.42;;;1.48;;
21657;SDS011;10990;48.174;9.782;2022-09-13T15:04:00;1.50;;;1.40;;
21657;SDS011;10990;48.174;9.782;2022-09-13T15:06:36;3.10;;;1.20;;
21657;SDS011;10990;48.174;9.782;2022-09-13T15:09:21;2.25;;;1.42;;
21657;SDS011;10990;48.174;9.782;2022-09-13T15:11:55;1.30;;;1.20;;
21657;SDS011;10990;48.174;9.782;2022-09-13T15:14:28;5.15;;;1.30;;
21657;SDS011;10990;48.174;9.782;2022-09-13T15:17:00;1.70;;;1.45;;
21657;SDS011;10990;48.174;9.782;2022-09-13T15:19:38;3.35;;;1.30;;
21657;SDS011;10990;48.174;9.782;2022-09-13T15:22:18;3.30;;;1.30;;
21657;SDS011;10990;48.174;9.782;2022-09-13T15:24:51;2.22;;;1.40;;
21657;SDS011;10990;48.174;9.782;2022-09-13T15:27:21;3.85;;;1.70;;
21657;SDS011;10990;48.174;9.782;2022-09-13T15:29:52;3.10;;;1.38;;
21657;SDS011;10990;48.174;9.782;2022-09-13T15:32:22;6.60;;;2.00;;
21657;SDS011;10990;48.174;9.782;2022-09-13T15:34:56;2.17;;;1.45;;
21657;SDS011;10990;48.174;9.782;2022-09-13T15:37:33;2.75;;;1.27;;
21657;SDS011;10990;48.174;9.782;2022-09-13T15:40:15;2.88;;;1.20;;
21657;SDS011;10990;48.174;9.782;2022-09-13T15:42:45;3.90;;;1.40;;
21657;SDS011;10990;48.174;9.782;2022-09-13T15:45:13;3.38;;;1.40;;
21657;SDS011;10990;48.174;9.782;2022-09-13T15:47:40;2.15;;;1.33;;
21657;SDS011;10990;48.174;9.782;2022-09-13T15:50:19;4.20;;;1.55;;